createdAt,value
2022-10-02T00:00:38.747Z,7.70
2022-10-02T00:03:12.568Z,7.50
2022-10-02T00:05:44.486Z,7.60
2022-10-02T00:08:18.140Z,7.80
2022-10-02T00:10:53.347Z,7.50
2022-10-02T00:13:26.906Z,7.30
2022-10-02T00:15:56.159Z,7.30
2022-10-02T00:18:28.866Z,7.90
2022-10-02T00:21:03.989Z,6.80
2022-10-02T00:26:08.895Z,6.60
2022-10-02T00:28:45.433Z,6.90
2022-10-02T00:31:28.542Z,7.10
2022-10-02T00:34:12.988Z,6.50
2022-10-02T00:36:54.160Z,7.40
2022-10-02T00:39:33.530Z,6.70
2022-10-02T00:42:32.755Z,6.30
2022-10-02T00:45:40.126Z,6.90
2022-10-02T00:48:26.379Z,6.50
2022-10-02T00:51:03.434Z,7.50
2022-10-02T00:53:40.437Z,8.00
2022-10-02T00:56:19.271Z,7.20
2022-10-02T00:58:59.981Z,7.10
2022-10-02T01:01:35.687Z,8.30
2022-10-02T01:04:09.403Z,7.90
2022-10-02T01:06:37.945Z,7.30
2022-10-02T01:09:06.486Z,7.30
2022-10-02T01:11:34.971Z,7.30
2022-10-02T01:14:03.861Z,7.70
2022-10-02T01:16:33.751Z,7.70
2022-10-02T01:19:02.930Z,7.10
2022-10-02T01:21:36.965Z,8.00
2022-10-02T01:24:13.272Z,8.10
2022-10-02T01:26:42.108Z,7.70
2022-10-02T01:29:11.376Z,7.80
2022-10-02T01:31:42.018Z,7.30
2022-10-02T01:34:10.490Z,7.20
2022-10-02T01:36:39.077Z,9.20
2022-10-02T01:39:07.801Z,8.20
2022-10-02T01:41:41.196Z,8.00
2022-10-02T01:44:10.386Z,8.30
2022-10-02T01:46:46.688Z,8.10
2022-10-02T01:49:34.352Z,8.10
2022-10-02T01:52:12.861Z,7.90
2022-10-02T01:55:00.684Z,8.40
2022-10-02T01:57:37.869Z,7.10
2022-10-02T02:00:11.180Z,8.50
2022-10-02T02:02:53.674Z,7.80
2022-10-02T02:05:42.304Z,7.10
2022-10-02T02:08:16.614Z,8.10
2022-10-02T02:10:53.043Z,7.80
2022-10-02T02:13:26.373Z,8.20
2022-10-02T02:16:01.164Z,7.90
2022-10-02T02:18:34.595Z,8.90
2022-10-02T02:21:08.904Z,8.10
2022-10-02T02:23:39.503Z,7.90
2022-10-02T02:26:11.801Z,8.20
2022-10-02T02:28:45.305Z,8.30
2022-10-02T02:31:18.563Z,8.30
2022-10-02T02:33:50.755Z,8.40
2022-10-02T02:36:23.923Z,9.00
2022-10-02T02:38:58.789Z,8.00
2022-10-02T02:41:31.387Z,7.90
2022-10-02T02:44:02.149Z,8.30
2022-10-02T02:46:55.070Z,9.00
2022-10-02T02:49:26.886Z,9.20
2022-10-02T02:51:59.524Z,9.00
2022-10-02T02:54:35.930Z,8.50
2022-10-02T02:57:07.288Z,8.80
2022-10-02T02:59:38.040Z,9.00
2022-10-02T03:02:06.292Z,9.50
2022-10-02T03:04:34.729Z,9.70
2022-10-02T03:07:04.759Z,10.10
2022-10-02T03:09:34.608Z,9.40
2022-10-02T03:12:16.315Z,10.10
2022-10-02T03:15:02.291Z,10.10
2022-10-02T03:17:44.094Z,9.70
2022-10-02T03:20:19.318Z,11.90
2022-10-02T03:22:56.830Z,11.90
2022-10-02T03:25:31.285Z,10.40
2022-10-02T03:28:04.924Z,10.40
2022-10-02T03:30:34.286Z,10.30
2022-10-02T03:33:04.956Z,9.90
2022-10-02T03:35:33.592Z,9.70
2022-10-02T03:38:11.099Z,9.40
2022-10-02T03:40:39.911Z,9.90
2022-10-02T03:43:09.839Z,9.50
2022-10-02T03:45:53.425Z,10.30
2022-10-02T03:48:21.666Z,9.90
2022-10-02T03:50:50.667Z,9.50
2022-10-02T03:53:21.134Z,9.80
2022-10-02T03:55:55.277Z,10.20
2022-10-02T03:58:25.156Z,9.10
2022-10-02T04:00:58.760Z,8.50
2022-10-02T04:03:30.877Z,9.50
2022-10-02T04:06:04.258Z,10.00
2022-10-02T04:08:36.934Z,8.90
2022-10-02T04:11:12.114Z,9.00
2022-10-02T04:16:16.156Z,9.70
2022-10-02T04:18:54.201Z,9.60
2022-10-02T04:21:33.757Z,9.20
2022-10-02T04:24:12.873Z,9.50
2022-10-02T04:26:46.005Z,10.10
2022-10-02T04:29:20.995Z,9.00
2022-10-02T04:31:53.722Z,9.20
2022-10-02T04:34:22.009Z,9.40
2022-10-02T04:37:10.892Z,10.30
2022-10-02T04:39:57.592Z,10.60
2022-10-02T04:42:39.965Z,10.60
2022-10-02T04:45:26.872Z,10.40
2022-10-02T04:48:21.830Z,9.70
2022-10-02T04:50:57.051Z,10.20
2022-10-02T04:56:38.212Z,9.90
2022-10-02T04:59:20.779Z,10.50
2022-10-02T05:01:58.724Z,11.30
2022-10-02T05:04:53.907Z,11.00
2022-10-02T05:07:54.047Z,11.20
2022-10-02T05:10:49.035Z,10.30
2022-10-02T05:13:31.711Z,9.60
2022-10-02T05:16:16.102Z,9.10
2022-10-02T05:19:08.596Z,9.60
2022-10-02T05:21:56.985Z,9.50
2022-10-02T05:24:44.075Z,9.30
2022-10-02T05:27:33.101Z,9.90
2022-10-02T05:30:08.404Z,9.70
2022-10-02T05:35:32.037Z,8.80
2022-10-02T05:38:13.698Z,7.70
2022-10-02T05:40:49.882Z,7.40
2022-10-02T05:43:29.872Z,7.20
2022-10-02T05:46:05.970Z,7.40
2022-10-02T05:48:40.834Z,9.10
2022-10-02T05:51:16.481Z,9.30
2022-10-02T05:53:52.652Z,7.80
2022-10-02T05:56:26.651Z,7.30
2022-10-02T05:59:00.558Z,6.80
2022-10-02T06:01:33.139Z,6.40
2022-10-02T06:04:07.806Z,6.20
2022-10-02T06:06:40.114Z,7.10
2022-10-02T06:09:19.561Z,6.30
2022-10-02T06:11:53.096Z,6.70
2022-10-02T06:14:30.502Z,6.40
2022-10-02T06:17:03.602Z,6.80
2022-10-02T06:19:38.665Z,6.60
2022-10-02T06:22:11.869Z,6.40
2022-10-02T06:24:45.252Z,6.90
2022-10-02T06:27:22.945Z,6.90
2022-10-02T06:29:59.183Z,7.10
2022-10-02T06:32:36.935Z,7.30
2022-10-02T06:35:11.535Z,7.20
2022-10-02T06:37:54.473Z,6.70
2022-10-02T06:40:42.514Z,6.40
2022-10-02T06:43:24.418Z,5.60
2022-10-02T06:46:00.698Z,6.60
2022-10-02T06:48:40.962Z,6.00
2022-10-02T06:51:21.700Z,5.50
2022-10-02T06:54:04.424Z,6.00
2022-10-02T06:56:51.415Z,4.70
2022-10-02T06:59:45.404Z,8.20
2022-10-02T07:02:33.234Z,5.60
2022-10-02T07:05:29.646Z,5.70
2022-10-02T07:08:04.485Z,5.40
2022-10-02T07:10:38.239Z,5.60
2022-10-02T07:13:32.022Z,5.00
2022-10-02T07:16:25.409Z,5.90
2022-10-02T07:19:43.855Z,5.30
2022-10-02T07:22:44.452Z,5.80
2022-10-02T07:25:34.064Z,5.80
2022-10-02T07:28:12.133Z,5.40
2022-10-02T07:30:49.781Z,5.10
2022-10-02T07:33:30.488Z,5.10
2022-10-02T07:36:11.183Z,4.90
2022-10-02T07:39:11.224Z,5.10
2022-10-02T07:42:13.140Z,4.50
2022-10-02T07:45:04.780Z,4.30
2022-10-02T07:47:54.201Z,4.30
2022-10-02T07:50:31.098Z,4.30
2022-10-02T07:53:09.330Z,4.90
2022-10-02T07:55:41.182Z,4.20
2022-10-02T07:58:13.664Z,3.90
2022-10-02T08:00:48.483Z,6.20
2022-10-02T08:03:22.318Z,3.50
2022-10-02T08:05:56.326Z,3.80
2022-10-02T08:08:31.572Z,7.50
2022-10-02T08:11:06.600Z,4.10
2022-10-02T08:13:41.060Z,3.40
2022-10-02T08:16:12.639Z,3.40
2022-10-02T08:18:46.212Z,2.70
2022-10-02T08:21:20.802Z,3.00
2022-10-02T08:23:59.812Z,2.90
2022-10-02T08:26:35.895Z,4.20
2022-10-02T08:29:09.734Z,2.40
2022-10-02T08:31:38.378Z,2.20
2022-10-02T08:34:16.470Z,2.50
2022-10-02T08:37:04.536Z,2.40
2022-10-02T08:40:02.003Z,2.70
2022-10-02T08:43:18.687Z,2.50
2022-10-02T08:46:23.651Z,2.30
2022-10-02T08:49:17.012Z,2.60
2022-10-02T08:52:07.085Z,2.40
2022-10-02T08:55:00.458Z,4.30
2022-10-02T08:57:52.847Z,2.50
2022-10-02T09:00:25.195Z,2.50
2022-10-02T09:03:30.000Z,2.00
2022-10-02T09:06:37.241Z,2.40
2022-10-02T09:09:37.448Z,2.40
2022-10-02T09:12:42.055Z,2.80
2022-10-02T09:15:17.411Z,3.00
2022-10-02T09:18:14.182Z,2.60
2022-10-02T09:21:11.938Z,2.70
2022-10-02T09:24:33.972Z,2.60
2022-10-02T09:27:58.865Z,2.00
2022-10-02T09:30:47.786Z,7.70
2022-10-02T09:33:47.169Z,4.10
2022-10-02T09:36:45.702Z,2.60
2022-10-02T09:40:09.227Z,2.30
2022-10-02T09:43:12.240Z,2.90
2022-10-02T09:46:15.908Z,2.40
2022-10-02T09:49:25.369Z,2.60
2022-10-02T09:52:39.331Z,2.70
2022-10-02T09:55:49.550Z,2.30
2022-10-02T09:59:00.387Z,2.00
2022-10-02T10:02:01.541Z,2.10
2022-10-02T10:05:11.063Z,2.10
2022-10-02T10:08:10.802Z,1.90
2022-10-02T10:11:19.486Z,2.10
2022-10-02T10:14:34.543Z,7.50
2022-10-02T10:17:38.626Z,2.80
2022-10-02T10:20:25.313Z,2.10
2022-10-02T10:23:07.231Z,2.10
2022-10-02T10:26:01.680Z,1.60
2022-10-02T10:28:53.051Z,2.10
2022-10-02T10:32:03.330Z,2.00
2022-10-02T10:35:04.420Z,1.60
2022-10-02T10:38:13.641Z,2.10
2022-10-02T10:41:04.100Z,2.00
2022-10-02T10:44:12.867Z,1.90
2022-10-02T10:47:01.404Z,1.90
2022-10-02T10:50:16.057Z,1.60
2022-10-02T10:53:08.811Z,1.80
2022-10-02T10:56:02.738Z,2.00
2022-10-02T10:58:45.791Z,7.10
2022-10-02T11:01:18.996Z,4.10
2022-10-02T11:04:22.499Z,3.20
2022-10-02T11:10:04.231Z,2.90
2022-10-02T11:13:05.403Z,3.60
2022-10-02T11:16:12.324Z,2.90
2022-10-02T11:19:03.164Z,5.70
2022-10-02T11:21:55.860Z,3.80
2022-10-02T11:25:01.082Z,2.20
2022-10-02T11:27:58.457Z,2.60
2022-10-02T11:30:41.470Z,3.20
2022-10-02T11:33:37.825Z,3.00
2022-10-02T11:36:42.073Z,2.30
2022-10-02T11:39:31.098Z,2.50
2022-10-02T11:42:26.234Z,2.20
2022-10-02T11:45:14.623Z,2.90
2022-10-02T11:48:15.233Z,2.20
2022-10-02T11:50:59.407Z,2.50
2022-10-02T11:54:12.882Z,2.30
2022-10-02T11:57:05.403Z,2.40
2022-10-02T11:59:55.788Z,2.30
2022-10-02T12:02:35.473Z,3.10
2022-10-02T12:05:23.525Z,2.10
2022-10-02T12:08:01.022Z,1.60
2022-10-02T12:10:47.648Z,2.30
2022-10-02T12:13:49.820Z,1.80
2022-10-02T12:16:29.861Z,1.80
2022-10-02T12:19:17.924Z,1.80
2022-10-02T12:22:18.131Z,2.00
2022-10-02T12:25:15.886Z,1.70
2022-10-02T12:28:02.015Z,1.80
2022-10-02T12:30:41.312Z,1.90
2022-10-02T12:33:27.968Z,1.90
2022-10-02T12:36:18.692Z,1.80
2022-10-02T12:39:00.489Z,2.30
2022-10-02T12:41:59.203Z,2.90
2022-10-02T12:45:11.611Z,2.30
2022-10-02T12:48:10.544Z,2.60
2022-10-02T12:51:05.734Z,3.00
2022-10-02T12:54:09.781Z,2.20
2022-10-02T12:57:08.381Z,2.40
2022-10-02T12:59:43.271Z,2.40
2022-10-02T13:03:00.318Z,2.60
2022-10-02T13:05:57.655Z,2.20
2022-10-02T13:08:39.199Z,2.20
2022-10-02T13:11:24.549Z,2.00
2022-10-02T13:14:11.398Z,2.00
2022-10-02T13:17:09.781Z,2.00
2022-10-02T13:19:50.579Z,2.40
2022-10-02T13:22:34.981Z,4.30
2022-10-02T13:25:23.123Z,3.50
2022-10-02T13:28:06.818Z,3.40
2022-10-02T13:30:43.416Z,2.50
2022-10-02T13:33:28.908Z,2.30
2022-10-02T13:39:02.909Z,2.50
2022-10-02T13:41:50.930Z,2.70
2022-10-02T13:44:31.102Z,2.90
2022-10-02T13:47:24.377Z,2.70
2022-10-02T13:50:28.649Z,2.20
2022-10-02T13:53:19.993Z,2.00
2022-10-02T13:55:53.601Z,2.50
2022-10-02T13:58:41.751Z,2.00
2022-10-02T14:01:28.410Z,2.40
2022-10-02T14:04:26.729Z,2.70
2022-10-02T14:07:05.249Z,2.50
2022-10-02T14:09:48.534Z,3.20
2022-10-02T14:12:35.134Z,2.70
2022-10-02T14:15:24.660Z,2.20
2022-10-02T14:18:20.076Z,2.80
2022-10-02T14:20:59.536Z,2.90
2022-10-02T14:23:48.057Z,2.70
2022-10-02T14:26:24.820Z,2.30
2022-10-02T14:29:11.960Z,2.30
2022-10-02T14:32:17.919Z,2.80
2022-10-02T14:35:03.560Z,2.80
2022-10-02T14:38:09.165Z,2.00
2022-10-02T14:40:50.509Z,2.40
2022-10-02T14:44:01.258Z,2.20
2022-10-02T14:46:44.177Z,2.40
2022-10-02T14:49:27.315Z,2.30
2022-10-02T14:52:23.062Z,2.50
2022-10-02T14:55:16.268Z,3.00
2022-10-02T14:58:13.555Z,2.90
2022-10-02T15:00:50.223Z,2.90
2022-10-02T15:03:47.531Z,2.50
2022-10-02T15:06:31.996Z,2.50
2022-10-02T15:09:06.048Z,2.70
2022-10-02T15:12:01.928Z,2.60
2022-10-02T15:17:29.331Z,2.80
2022-10-02T15:20:06.313Z,2.70
2022-10-02T15:22:39.412Z,2.30
2022-10-02T15:25:18.264Z,2.60
2022-10-02T15:28:08.047Z,2.80
2022-10-02T15:30:52.509Z,2.90
2022-10-02T15:33:31.917Z,3.30
2022-10-02T15:36:25.488Z,3.60
2022-10-02T15:39:19.067Z,4.30
2022-10-02T15:42:00.192Z,3.40
2022-10-02T15:45:03.844Z,3.70
2022-10-02T15:47:48.644Z,3.80
2022-10-02T15:50:29.385Z,3.90
2022-10-02T15:53:18.028Z,3.60
2022-10-02T15:55:56.045Z,3.90
2022-10-02T15:58:41.314Z,3.60
2022-10-02T16:01:23.753Z,3.90
2022-10-02T16:04:00.908Z,3.20
2022-10-02T16:06:50.016Z,4.00
2022-10-02T16:09:38.367Z,3.90
2022-10-02T16:12:29.403Z,4.50
2022-10-02T16:15:12.364Z,5.00
2022-10-02T16:18:00.022Z,4.50
2022-10-02T16:20:48.130Z,4.70
2022-10-02T16:23:44.274Z,4.40
2022-10-02T16:26:29.733Z,4.60
2022-10-02T16:29:16.205Z,4.50
2022-10-02T16:31:56.636Z,4.20
2022-10-02T16:34:42.491Z,5.30
2022-10-02T16:37:24.136Z,4.80
2022-10-02T16:39:59.826Z,5.60
2022-10-02T16:42:42.046Z,5.20
2022-10-02T16:45:46.946Z,4.10
2022-10-02T16:48:23.699Z,5.10
2022-10-02T16:51:27.946Z,5.70
2022-10-02T16:54:09.658Z,4.80
2022-10-02T16:56:49.566Z,5.20
2022-10-02T16:59:24.180Z,5.90
2022-10-02T17:02:18.884Z,6.30
2022-10-02T17:05:12.716Z,5.80
2022-10-02T17:07:52.978Z,5.10
2022-10-02T17:10:37.440Z,6.00
2022-10-02T17:13:26.373Z,5.20
2022-10-02T17:15:59.083Z,6.00
2022-10-02T17:18:39.219Z,6.70
2022-10-02T17:21:20.915Z,6.00
2022-10-02T17:24:04.918Z,5.50
2022-10-02T17:26:41.077Z,6.00
2022-10-02T17:29:21.038Z,6.00
2022-10-02T17:31:53.637Z,6.40
2022-10-02T17:34:24.568Z,6.80
2022-10-02T17:37:11.404Z,5.70
2022-10-02T17:39:59.380Z,6.60
2022-10-02T17:42:43.285Z,7.20
2022-10-02T17:45:30.844Z,6.80
2022-10-02T17:48:14.163Z,6.70
2022-10-02T17:51:31.025Z,7.50
2022-10-02T17:54:40.059Z,6.60
2022-10-02T17:57:30.534Z,10.60
2022-10-02T18:00:23.469Z,8.20
2022-10-02T18:03:26.293Z,8.40
2022-10-02T18:06:17.213Z,7.80
2022-10-02T18:09:22.879Z,8.60
2022-10-02T18:12:12.786Z,9.30
2022-10-02T18:15:21.444Z,9.00
2022-10-02T18:18:07.743Z,9.90
2022-10-02T18:20:49.630Z,9.70
2022-10-02T18:23:36.595Z,8.30
2022-10-02T18:26:20.009Z,8.60
2022-10-02T18:29:29.386Z,9.00
2022-10-02T18:32:11.507Z,8.70
2022-10-02T18:35:05.177Z,8.70
2022-10-02T18:37:50.876Z,10.60
2022-10-02T18:40:25.487Z,9.70
2022-10-02T18:43:20.622Z,11.80
2022-10-02T18:46:04.099Z,9.90
2022-10-02T18:48:53.570Z,9.80
2022-10-02T18:51:37.146Z,9.70
2022-10-02T18:54:24.231Z,9.80
2022-10-02T18:57:04.931Z,9.00
2022-10-02T18:59:49.757Z,11.20
2022-10-02T19:02:32.981Z,9.10
2022-10-02T19:05:19.964Z,10.90
2022-10-02T19:07:56.710Z,10.00
2022-10-02T19:10:38.935Z,10.70
2022-10-02T19:13:17.973Z,10.20
2022-10-02T19:15:48.888Z,11.10
2022-10-02T19:18:19.208Z,10.30
2022-10-02T19:20:57.547Z,11.90
2022-10-02T19:23:32.712Z,11.40
2022-10-02T19:28:36.967Z,9.50
2022-10-02T19:31:13.114Z,9.90
2022-10-02T19:33:50.604Z,9.40
2022-10-02T19:36:22.494Z,9.60
2022-10-02T19:38:55.602Z,9.40
2022-10-02T19:41:27.400Z,8.60
2022-10-02T19:44:02.874Z,6.80
2022-10-02T19:46:39.867Z,6.80
2022-10-02T19:49:17.279Z,5.00
2022-10-02T19:51:47.523Z,4.70
2022-10-02T19:54:20.739Z,3.80
2022-10-02T19:57:01.790Z,3.10
2022-10-02T19:59:44.958Z,3.70
2022-10-02T20:02:21.741Z,3.30
2022-10-02T20:04:52.442Z,3.50
2022-10-02T20:07:23.079Z,3.40
2022-10-02T20:10:02.003Z,4.00
2022-10-02T20:12:36.895Z,3.70
2022-10-02T20:15:12.488Z,3.30
2022-10-02T20:17:43.480Z,2.80
2022-10-02T20:20:16.009Z,3.00
2022-10-02T20:22:49.488Z,3.40
2022-10-02T20:25:21.691Z,2.70
2022-10-02T20:27:59.661Z,2.80
2022-10-02T20:30:37.511Z,3.30
2022-10-02T20:33:12.798Z,3.20
2022-10-02T20:35:49.098Z,3.40
2022-10-02T20:38:25.612Z,3.10
2022-10-02T20:40:56.782Z,2.50
2022-10-02T20:43:32.041Z,2.90
2022-10-02T20:46:19.806Z,2.50
2022-10-02T20:49:33.419Z,2.80
2022-10-02T20:52:39.769Z,2.60
2022-10-02T20:55:17.470Z,3.10
2022-10-02T20:58:16.711Z,3.90
2022-10-02T21:01:03.479Z,4.30
2022-10-02T21:06:48.695Z,3.90
2022-10-02T21:09:45.134Z,4.00
2022-10-02T21:12:47.862Z,3.60
2022-10-02T21:15:50.723Z,4.20
2022-10-02T21:18:47.319Z,4.20
2022-10-02T21:21:36.200Z,4.10
2022-10-02T21:24:35.000Z,3.60
2022-10-02T21:27:40.633Z,3.50
2022-10-02T21:30:14.670Z,3.70
2022-10-02T21:33:02.747Z,3.50
2022-10-02T21:35:51.711Z,3.60
2022-10-02T21:38:49.738Z,3.90
2022-10-02T21:42:00.973Z,3.60
2022-10-02T21:45:16.276Z,3.80
2022-10-02T21:48:12.557Z,3.30
2022-10-02T21:51:10.003Z,3.20
2022-10-02T21:54:18.305Z,3.40
2022-10-02T21:57:12.702Z,3.60
2022-10-02T22:00:13.433Z,3.60
2022-10-02T22:03:17.657Z,3.30
2022-10-02T22:06:06.119Z,3.20
2022-10-02T22:08:42.123Z,3.20
2022-10-02T22:11:21.507Z,2.80
2022-10-02T22:13:52.795Z,3.20
2022-10-02T22:16:35.584Z,3.40
2022-10-02T22:19:17.724Z,3.30
2022-10-02T22:22:07.646Z,2.70
2022-10-02T22:24:54.663Z,3.00
2022-10-02T22:27:44.931Z,3.10
2022-10-02T22:30:24.143Z,3.10
2022-10-02T22:33:11.004Z,3.20
2022-10-02T22:36:00.971Z,3.30
2022-10-02T22:38:34.049Z,3.00
2022-10-02T22:41:07.680Z,2.80
2022-10-02T22:43:45.357Z,3.30
2022-10-02T22:46:27.832Z,4.10
2022-10-02T22:49:02.471Z,3.60
2022-10-02T22:51:40.157Z,3.30
2022-10-02T22:54:28.903Z,3.30
2022-10-02T22:57:10.613Z,3.30
2022-10-02T22:59:45.682Z,3.70
2022-10-02T23:02:20.787Z,3.90
2022-10-02T23:04:57.840Z,3.60
2022-10-02T23:07:34.763Z,3.80
2022-10-02T23:10:14.428Z,4.00
2022-10-02T23:12:51.460Z,3.40
2022-10-02T23:15:39.272Z,3.40
2022-10-02T23:18:18.706Z,3.40
2022-10-02T23:20:55.144Z,3.20
2022-10-02T23:23:28.417Z,3.50
2022-10-02T23:26:04.614Z,3.10
2022-10-02T23:28:38.551Z,3.30
2022-10-02T23:31:20.152Z,3.50
2022-10-02T23:34:02.260Z,6.20
2022-10-02T23:36:44.244Z,3.70
2022-10-02T23:39:20.069Z,4.40
2022-10-02T23:41:52.254Z,3.70
2022-10-02T23:44:37.687Z,4.00
2022-10-02T23:49:43.428Z,3.30
2022-10-02T23:52:48.518Z,3.10
2022-10-02T23:55:32.845Z,3.50
2022-10-02T23:58:14.774Z,3.20
